createdAt,value
2023-05-07T00:01:06.893Z,7.00
2023-05-07T00:03:35.038Z,6.30
2023-05-07T00:06:03.093Z,6.50
2023-05-07T00:08:31.059Z,5.83
2023-05-07T00:11:00.341Z,5.50
2023-05-07T00:13:28.386Z,5.80
2023-05-07T00:15:56.482Z,5.90
2023-05-07T00:18:24.385Z,5.83
2023-05-07T00:20:52.279Z,5.43
2023-05-07T00:23:20.338Z,5.50
2023-05-07T00:25:48.209Z,5.43
2023-05-07T00:28:17.564Z,5.47
2023-05-07T00:30:45.615Z,5.07
2023-05-07T00:33:13.525Z,5.10
2023-05-07T00:35:41.349Z,4.70
2023-05-07T00:38:09.425Z,4.70
2023-05-07T00:40:37.297Z,4.93
2023-05-07T00:43:05.286Z,4.40
2023-05-07T00:45:35.424Z,4.37
2023-05-07T00:48:07.680Z,4.60
2023-05-07T00:50:35.679Z,4.27
2023-05-07T00:53:03.720Z,3.90
2023-05-07T00:55:31.948Z,4.60
2023-05-07T00:58:00.066Z,3.90
2023-05-07T01:00:28.075Z,4.40
2023-05-07T01:02:57.418Z,4.23
2023-05-07T01:05:26.782Z,4.37
2023-05-07T01:07:56.541Z,4.03
2023-05-07T01:10:24.755Z,3.90
2023-05-07T01:12:53.640Z,4.10
2023-05-07T01:15:21.869Z,4.43
2023-05-07T01:17:49.767Z,3.77
2023-05-07T01:20:20.954Z,4.63
2023-05-07T01:22:51.203Z,4.80
2023-05-07T01:25:20.445Z,3.87
2023-05-07T01:27:48.495Z,4.40
2023-05-07T01:30:17.028Z,4.63
2023-05-07T01:32:50.200Z,4.40
2023-05-07T01:35:23.403Z,4.13
2023-05-07T01:37:53.077Z,4.20
2023-05-07T01:40:21.601Z,4.00
2023-05-07T01:42:52.856Z,4.23
2023-05-07T01:45:22.985Z,4.97
2023-05-07T01:47:53.708Z,4.20
2023-05-07T01:50:25.614Z,4.23
2023-05-07T01:52:55.180Z,3.97
2023-05-07T01:55:23.126Z,4.17
2023-05-07T01:57:51.021Z,4.07
2023-05-07T02:00:20.512Z,4.07
2023-05-07T02:02:48.459Z,3.90
2023-05-07T02:05:16.549Z,4.07
2023-05-07T02:07:44.500Z,4.07
2023-05-07T02:10:17.615Z,4.27
2023-05-07T02:12:45.615Z,3.73
2023-05-07T02:15:13.528Z,3.97
2023-05-07T02:18:03.665Z,4.10
2023-05-07T02:20:31.522Z,3.50
2023-05-07T02:22:59.430Z,3.83
2023-05-07T02:25:28.799Z,3.90
2023-05-07T02:27:56.821Z,4.03
2023-05-07T02:30:26.285Z,4.13
2023-05-07T02:32:54.234Z,4.17
2023-05-07T02:35:22.130Z,4.20
2023-05-07T02:37:49.995Z,3.60
2023-05-07T02:40:17.889Z,4.17
2023-05-07T02:42:47.145Z,4.00
2023-05-07T02:45:15.493Z,3.80
2023-05-07T02:47:43.728Z,3.60
2023-05-07T02:50:12.490Z,3.93
2023-05-07T02:52:41.025Z,4.40
2023-05-07T02:55:09.942Z,4.00
2023-05-07T02:57:37.902Z,4.03
2023-05-07T03:00:18.801Z,4.10
2023-05-07T03:02:46.765Z,3.90
2023-05-07T03:05:15.425Z,4.20
2023-05-07T03:07:46.144Z,4.03
2023-05-07T03:10:14.096Z,3.57
2023-05-07T03:12:42.089Z,4.27
2023-05-07T03:15:11.413Z,4.03
2023-05-07T03:17:40.797Z,4.20
2023-05-07T03:20:10.990Z,3.83
2023-05-07T03:22:39.375Z,4.33
2023-05-07T03:25:09.583Z,4.03
2023-05-07T03:27:38.360Z,4.37
2023-05-07T03:30:07.585Z,4.50
2023-05-07T03:32:36.281Z,4.73
2023-05-07T03:35:09.106Z,4.60
2023-05-07T03:37:37.044Z,4.50
2023-05-07T03:40:05.401Z,4.50
2023-05-07T03:42:33.400Z,3.97
2023-05-07T03:45:01.289Z,4.50
2023-05-07T03:47:29.256Z,4.80
2023-05-07T03:49:57.825Z,4.20
2023-05-07T03:52:27.187Z,4.30
2023-05-07T03:54:56.392Z,4.37
2023-05-07T03:57:24.286Z,4.67
2023-05-07T03:59:55.982Z,5.20
2023-05-07T04:02:24.318Z,4.80
2023-05-07T04:04:52.295Z,4.90
2023-05-07T04:07:20.212Z,5.13
2023-05-07T04:09:49.527Z,5.23
2023-05-07T04:12:23.878Z,5.13
2023-05-07T04:14:51.909Z,5.00
2023-05-07T04:17:22.176Z,4.97
2023-05-07T04:19:50.138Z,5.00
2023-05-07T04:22:18.024Z,5.20
2023-05-07T04:24:45.850Z,5.17
2023-05-07T04:27:15.211Z,5.83
2023-05-07T04:29:48.010Z,6.30
2023-05-07T04:32:16.027Z,5.57
2023-05-07T04:34:43.952Z,6.13
2023-05-07T04:37:11.832Z,6.30
2023-05-07T04:39:40.002Z,5.73
2023-05-07T04:42:10.237Z,5.80
2023-05-07T04:44:39.465Z,5.80
2023-05-07T04:47:07.632Z,6.37
2023-05-07T04:49:35.532Z,5.90
2023-05-07T04:52:04.390Z,6.30
2023-05-07T04:54:32.260Z,6.20
2023-05-07T04:57:02.451Z,6.30
2023-05-07T04:59:30.360Z,6.80
2023-05-07T05:01:59.995Z,7.00
2023-05-07T05:04:28.070Z,7.10
2023-05-07T05:06:56.205Z,7.43
2023-05-07T05:09:24.148Z,7.50
2023-05-07T05:12:02.985Z,7.93
2023-05-07T05:14:31.012Z,8.50
2023-05-07T05:17:00.291Z,9.17
2023-05-07T05:19:33.848Z,9.57
2023-05-07T05:22:04.879Z,9.97
2023-05-07T05:24:33.133Z,10.43
2023-05-07T05:27:04.924Z,10.60
2023-05-07T05:29:35.494Z,10.70
2023-05-07T05:32:09.886Z,10.77
2023-05-07T05:34:39.250Z,10.80
2023-05-07T05:37:18.697Z,11.50
2023-05-07T05:42:30.794Z,12.37
2023-05-07T05:44:59.876Z,12.60
2023-05-07T05:47:29.345Z,12.27
2023-05-07T05:49:57.341Z,12.47
2023-05-07T05:52:26.394Z,13.70
2023-05-07T05:54:54.734Z,13.47
2023-05-07T05:57:22.704Z,13.27
2023-05-07T05:59:50.884Z,13.90
2023-05-07T06:02:21.139Z,13.77
2023-05-07T06:04:52.118Z,13.70
2023-05-07T06:07:22.874Z,13.83
2023-05-07T06:09:51.705Z,13.10
2023-05-07T06:12:21.098Z,13.63
2023-05-07T06:14:51.141Z,13.00
2023-05-07T06:17:21.630Z,13.13
2023-05-07T06:19:51.717Z,14.00
2023-05-07T06:22:19.653Z,14.03
2023-05-07T06:24:48.104Z,13.53
2023-05-07T06:27:16.089Z,13.90
2023-05-07T06:29:44.083Z,13.53
2023-05-07T06:32:12.790Z,13.90
2023-05-07T06:34:41.714Z,13.83
2023-05-07T06:37:11.173Z,13.67
2023-05-07T06:39:39.149Z,14.53
2023-05-07T06:42:07.633Z,13.27
2023-05-07T06:44:35.637Z,14.37
2023-05-07T06:47:03.533Z,14.87
2023-05-07T06:49:32.365Z,14.33
2023-05-07T06:52:00.380Z,14.20
2023-05-07T06:54:31.008Z,13.57
2023-05-07T06:57:00.314Z,13.90
2023-05-07T06:59:28.280Z,13.67
2023-05-07T07:01:56.137Z,14.03
2023-05-07T07:04:25.299Z,13.90
2023-05-07T07:06:54.853Z,14.00
2023-05-07T07:09:24.031Z,13.20
2023-05-07T07:11:53.490Z,13.97
2023-05-07T07:14:21.736Z,14.00
2023-05-07T07:16:49.732Z,13.60
2023-05-07T07:19:18.031Z,13.47
2023-05-07T07:21:47.256Z,13.63
2023-05-07T07:24:20.289Z,13.40
2023-05-07T07:26:48.280Z,13.70
2023-05-07T07:29:17.603Z,12.73
2023-05-07T07:31:45.441Z,13.93
2023-05-07T07:34:13.379Z,14.07
2023-05-07T07:36:46.208Z,13.43
2023-05-07T07:39:15.067Z,13.60
2023-05-07T07:41:42.967Z,13.47
2023-05-07T07:44:15.689Z,12.93
2023-05-07T07:46:45.789Z,13.87
2023-05-07T07:49:13.753Z,13.10
2023-05-07T07:51:41.706Z,13.47
2023-05-07T07:54:09.794Z,13.63
2023-05-07T07:56:37.747Z,13.70
2023-05-07T07:59:05.832Z,13.10
2023-05-07T08:01:33.930Z,13.80
2023-05-07T08:04:04.260Z,13.07
2023-05-07T08:06:32.446Z,13.10
2023-05-07T08:09:01.714Z,14.30
2023-05-07T08:11:30.206Z,13.73
2023-05-07T08:13:58.564Z,12.97
2023-05-07T08:16:26.592Z,14.33
2023-05-07T08:18:54.512Z,14.33
2023-05-07T08:21:24.542Z,13.50
2023-05-07T08:23:52.533Z,12.90
2023-05-07T08:26:21.479Z,13.23
2023-05-07T08:28:49.384Z,12.97
2023-05-07T08:31:18.642Z,13.23
2023-05-07T08:33:46.652Z,12.60
2023-05-07T08:36:14.632Z,13.50
2023-05-07T08:38:46.618Z,13.50
2023-05-07T08:41:14.710Z,12.93
2023-05-07T08:43:43.919Z,11.87
2023-05-07T08:46:12.867Z,11.80
2023-05-07T08:48:41.179Z,12.43
2023-05-07T08:51:10.958Z,10.83
2023-05-07T08:53:42.373Z,11.00
2023-05-07T08:56:12.581Z,12.23
2023-05-07T08:58:40.547Z,11.57
2023-05-07T09:01:11.235Z,12.33
2023-05-07T09:03:40.152Z,12.30
2023-05-07T09:06:08.237Z,11.70
2023-05-07T09:08:37.283Z,12.00
2023-05-07T09:11:05.569Z,11.73
2023-05-07T09:13:35.029Z,11.53
2023-05-07T09:16:13.413Z,11.40
2023-05-07T09:18:45.813Z,11.13
2023-05-07T09:21:16.804Z,12.30
2023-05-07T09:23:44.942Z,13.00
2023-05-07T09:26:13.691Z,11.97
2023-05-07T09:28:44.175Z,12.23
2023-05-07T09:31:13.597Z,12.50
2023-05-07T09:33:42.170Z,11.90
2023-05-07T09:36:11.679Z,12.20
2023-05-07T09:38:40.193Z,11.53
2023-05-07T09:41:10.069Z,11.97
2023-05-07T09:43:40.634Z,12.27
2023-05-07T09:46:13.832Z,12.13
2023-05-07T09:48:43.539Z,12.83
2023-05-07T09:51:20.512Z,13.00
2023-05-07T09:53:48.590Z,12.40
2023-05-07T09:56:17.415Z,13.43
2023-05-07T09:58:47.020Z,12.93
2023-05-07T10:01:17.812Z,12.80
2023-05-07T10:03:46.575Z,12.37
2023-05-07T10:06:15.400Z,13.10
2023-05-07T10:08:45.448Z,13.53
2023-05-07T10:11:15.013Z,12.27
2023-05-07T10:13:45.138Z,12.17
2023-05-07T10:16:13.235Z,12.57
2023-05-07T10:18:42.808Z,13.03
2023-05-07T10:21:16.965Z,12.83
2023-05-07T10:23:47.964Z,11.80
2023-05-07T10:26:16.891Z,11.47
2023-05-07T10:28:48.787Z,9.83
2023-05-07T10:31:32.557Z,10.07
2023-05-07T10:34:03.382Z,9.40
2023-05-07T10:36:31.980Z,9.57
2023-05-07T10:39:00.170Z,9.67
2023-05-07T10:41:28.302Z,8.87
2023-05-07T10:43:56.330Z,8.97
2023-05-07T10:46:25.023Z,8.37
2023-05-07T10:49:17.188Z,9.50
2023-05-07T10:51:46.850Z,11.50
2023-05-07T10:54:22.348Z,10.40
2023-05-07T10:56:52.002Z,12.03
2023-05-07T10:59:41.898Z,12.00
2023-05-07T11:02:12.151Z,12.63
2023-05-07T11:04:42.689Z,10.77
2023-05-07T11:07:27.415Z,10.13
2023-05-07T11:10:08.783Z,9.57
2023-05-07T11:12:56.330Z,8.83
2023-05-07T11:15:43.072Z,8.97
2023-05-07T11:18:12.325Z,7.40
2023-05-07T11:20:55.661Z,8.30
2023-05-07T11:23:57.680Z,9.97
2023-05-07T11:26:26.185Z,7.27
2023-05-07T11:28:55.379Z,5.33
2023-05-07T11:31:26.640Z,7.03
2023-05-07T11:33:55.601Z,6.70
2023-05-07T11:36:27.060Z,7.53
2023-05-07T11:38:55.087Z,8.43
2023-05-07T11:41:23.729Z,7.93
2023-05-07T11:44:02.022Z,8.63
2023-05-07T11:46:30.864Z,7.53
2023-05-07T11:48:59.565Z,7.20
2023-05-07T11:51:28.924Z,7.57
2023-05-07T11:53:56.921Z,7.33
2023-05-07T11:56:25.587Z,7.67
2023-05-07T11:58:53.531Z,7.00
2023-05-07T12:01:21.448Z,7.40
2023-05-07T12:03:49.436Z,6.45
2023-05-07T12:06:18.687Z,7.00
2023-05-07T12:08:50.394Z,6.20
2023-05-07T12:11:27.193Z,6.50
2023-05-07T12:13:59.770Z,6.50
2023-05-07T12:16:28.706Z,6.33
2023-05-07T12:18:56.992Z,5.47
2023-05-07T12:21:28.138Z,5.50
2023-05-07T12:23:58.392Z,5.47
2023-05-07T12:26:26.666Z,5.60
2023-05-07T12:28:54.633Z,5.30
2023-05-07T12:31:22.794Z,5.50
2023-05-07T12:33:51.385Z,5.37
2023-05-07T12:36:19.313Z,5.40
2023-05-07T12:38:47.260Z,5.80
2023-05-07T12:41:16.580Z,4.90
2023-05-07T12:43:46.935Z,5.33
2023-05-07T12:46:15.636Z,6.03
2023-05-07T12:48:47.183Z,6.40
2023-05-07T12:51:16.303Z,6.03
2023-05-07T12:53:45.010Z,5.70
2023-05-07T12:56:13.071Z,5.73
2023-05-07T12:58:42.770Z,5.55
2023-05-07T13:01:12.169Z,6.07
2023-05-07T13:03:40.902Z,5.17
2023-05-07T13:06:13.098Z,5.70
2023-05-07T13:08:44.156Z,5.68
2023-05-07T13:11:12.985Z,4.70
2023-05-07T13:13:43.364Z,4.37
2023-05-07T13:16:12.857Z,4.20
2023-05-07T13:18:42.073Z,3.45
2023-05-07T13:21:11.133Z,3.80
2023-05-07T13:23:39.610Z,3.75
2023-05-07T13:26:24.847Z,3.92
2023-05-07T13:28:56.046Z,3.45
2023-05-07T13:31:24.037Z,2.00
2023-05-07T13:33:52.091Z,1.87
2023-05-07T13:36:20.148Z,1.93
2023-05-07T13:38:48.402Z,2.00
2023-05-07T13:41:16.711Z,2.55
2023-05-07T13:43:44.605Z,3.40
2023-05-07T13:46:14.215Z,3.47
2023-05-07T13:48:44.957Z,4.97
2023-05-07T13:51:12.871Z,5.45
2023-05-07T13:53:41.108Z,5.77
2023-05-07T13:56:09.012Z,5.23
2023-05-07T13:58:42.213Z,5.18
2023-05-07T14:01:17.888Z,5.10
2023-05-07T14:03:46.099Z,5.87
2023-05-07T14:06:14.150Z,5.10
2023-05-07T14:08:42.262Z,4.60
2023-05-07T14:11:10.256Z,4.75
2023-05-07T14:13:38.226Z,4.55
2023-05-07T14:16:07.073Z,5.60
2023-05-07T14:18:38.102Z,5.75
2023-05-07T14:21:10.727Z,6.03
2023-05-07T14:23:39.427Z,6.23
2023-05-07T14:26:07.512Z,6.47
2023-05-07T14:28:35.537Z,6.10
2023-05-07T14:31:04.055Z,7.03
2023-05-07T14:33:31.976Z,7.07
2023-05-07T14:36:01.226Z,7.40
2023-05-07T14:38:29.066Z,8.27
2023-05-07T14:40:57.412Z,7.88
2023-05-07T14:43:25.335Z,8.30
2023-05-07T14:45:54.224Z,7.17
2023-05-07T14:48:22.274Z,7.17
2023-05-07T14:50:50.563Z,7.17
2023-05-07T14:53:20.942Z,6.10
2023-05-07T14:58:23.156Z,6.03
2023-05-07T15:00:51.443Z,4.97
2023-05-07T15:03:19.736Z,5.50
2023-05-07T15:05:49.975Z,4.53
2023-05-07T15:08:19.339Z,4.60
2023-05-07T15:10:47.385Z,4.10
2023-05-07T15:13:16.545Z,4.00
2023-05-07T15:15:45.719Z,4.43
2023-05-07T15:18:14.009Z,3.77
2023-05-07T15:20:43.099Z,4.18
2023-05-07T15:23:12.982Z,4.15
2023-05-07T15:25:42.616Z,3.97
2023-05-07T15:28:10.688Z,4.47
2023-05-07T15:30:38.695Z,5.03
2023-05-07T15:33:06.825Z,3.90
2023-05-07T15:35:34.887Z,4.57
2023-05-07T15:38:04.728Z,5.20
2023-05-07T15:40:33.693Z,4.17
2023-05-07T15:43:03.524Z,3.95
2023-05-07T15:45:33.691Z,3.70
2023-05-07T15:48:03.929Z,3.43
2023-05-07T15:50:33.157Z,2.90
2023-05-07T15:53:04.884Z,2.20
2023-05-07T15:55:49.538Z,2.20
2023-05-07T15:58:20.481Z,2.00
2023-05-07T16:00:48.848Z,1.83
2023-05-07T16:03:19.002Z,1.70
2023-05-07T16:05:47.608Z,1.80
2023-05-07T16:08:26.791Z,1.97
2023-05-07T16:10:55.357Z,2.20
2023-05-07T16:13:25.206Z,2.00
2023-05-07T16:16:00.632Z,2.33
2023-05-07T16:18:29.758Z,2.10
2023-05-07T16:20:58.085Z,2.30
2023-05-07T16:23:29.718Z,2.53
2023-05-07T16:25:57.750Z,2.33
2023-05-07T16:28:28.093Z,2.50
2023-05-07T16:30:57.180Z,2.60
2023-05-07T16:33:25.794Z,2.23
2023-05-07T16:35:53.819Z,2.53
2023-05-07T16:38:23.475Z,2.67
2023-05-07T16:40:51.511Z,2.70
2023-05-07T16:43:19.718Z,2.53
2023-05-07T16:45:51.150Z,2.77
2023-05-07T16:48:27.570Z,2.63
2023-05-07T16:50:55.976Z,2.20
2023-05-07T16:53:25.508Z,2.57
2023-05-07T16:55:56.342Z,2.87
2023-05-07T16:58:24.463Z,2.97
2023-05-07T17:00:54.045Z,2.83
2023-05-07T17:03:23.500Z,2.10
2023-05-07T17:05:52.936Z,2.10
2023-05-07T17:08:20.933Z,1.73
2023-05-07T17:10:49.421Z,1.80
2023-05-07T17:13:17.490Z,1.80
2023-05-07T17:15:47.560Z,1.83
2023-05-07T17:18:18.746Z,1.60
2023-05-07T17:20:46.701Z,1.60
2023-05-07T17:23:16.935Z,1.47
2023-05-07T17:25:46.720Z,1.40
2023-05-07T17:28:15.525Z,1.30
2023-05-07T17:30:45.735Z,1.30
2023-05-07T17:33:21.161Z,1.20
2023-05-07T17:35:53.685Z,1.27
2023-05-07T17:38:28.749Z,1.60
2023-05-07T17:41:00.014Z,1.60
2023-05-07T17:43:28.892Z,1.70
2023-05-07T17:45:58.099Z,1.80
2023-05-07T17:48:31.244Z,1.60
2023-05-07T17:51:04.680Z,1.43
2023-05-07T17:53:32.805Z,1.90
2023-05-07T17:56:01.152Z,1.37
2023-05-07T17:58:29.457Z,1.70
2023-05-07T18:00:57.600Z,1.73
2023-05-07T18:03:25.768Z,1.50
2023-05-07T18:05:54.223Z,1.50
2023-05-07T18:08:24.649Z,1.60
2023-05-07T18:10:54.755Z,2.00
2023-05-07T18:13:22.883Z,1.93
2023-05-07T18:15:51.506Z,2.20
2023-05-07T18:18:19.944Z,2.30
2023-05-07T18:20:51.131Z,2.57
2023-05-07T18:23:22.862Z,2.23
2023-05-07T18:25:52.228Z,2.63
2023-05-07T18:28:20.464Z,2.27
2023-05-07T18:30:48.587Z,2.60
2023-05-07T18:33:16.889Z,2.67
2023-05-07T18:35:45.634Z,3.30
2023-05-07T18:38:14.918Z,3.30
2023-05-07T18:40:45.917Z,3.83
2023-05-07T18:43:15.773Z,3.70
2023-05-07T18:45:43.842Z,3.70
2023-05-07T18:48:11.887Z,3.40
2023-05-07T18:50:59.777Z,3.83
2023-05-07T18:53:30.025Z,2.93
2023-05-07T18:56:00.218Z,3.10
2023-05-07T18:58:34.577Z,3.13
2023-05-07T19:01:07.913Z,2.87
2023-05-07T19:03:38.914Z,2.73
2023-05-07T19:06:07.551Z,3.13
2023-05-07T19:08:35.662Z,3.03
2023-05-07T19:11:04.351Z,2.90
2023-05-07T19:13:34.377Z,2.70
2023-05-07T19:16:04.468Z,3.30
2023-05-07T19:18:34.956Z,3.27
2023-05-07T19:21:02.948Z,3.00
2023-05-07T19:23:31.026Z,3.10
2023-05-07T19:25:59.444Z,3.43
2023-05-07T19:28:27.360Z,3.37
2023-05-07T19:30:56.617Z,3.00
2023-05-07T19:33:24.732Z,3.30
2023-05-07T19:35:54.028Z,3.37
2023-05-07T19:38:21.995Z,3.27
2023-05-07T19:40:50.459Z,3.97
2023-05-07T19:43:18.523Z,3.43
2023-05-07T19:45:48.671Z,3.10
2023-05-07T19:48:17.981Z,4.30
2023-05-07T19:50:48.852Z,3.90
2023-05-07T19:53:16.804Z,4.13
2023-05-07T19:55:44.762Z,4.10
2023-05-07T19:58:12.861Z,6.80
2023-05-07T20:00:42.613Z,7.13
2023-05-07T20:03:18.141Z,6.00
2023-05-07T20:05:49.099Z,5.73
2023-05-07T20:08:17.517Z,4.90
2023-05-07T20:10:45.484Z,4.73
2023-05-07T20:13:13.675Z,5.17
2023-05-07T20:15:41.792Z,5.33
2023-05-07T20:18:10.278Z,5.87
2023-05-07T20:20:38.361Z,5.40
2023-05-07T20:23:07.927Z,4.63
2023-05-07T20:25:35.852Z,4.97
2023-05-07T20:28:03.889Z,5.97
2023-05-07T20:30:31.835Z,4.90
2023-05-07T20:33:00.000Z,5.27
2023-05-07T20:35:27.932Z,4.90
2023-05-07T20:37:55.873Z,4.47
2023-05-07T20:40:25.527Z,4.80
2023-05-07T20:42:53.606Z,5.57
2023-05-07T20:45:21.797Z,5.50
2023-05-07T20:47:49.932Z,5.60
2023-05-07T20:50:17.938Z,5.77
2023-05-07T20:52:46.232Z,6.03
2023-05-07T20:55:14.197Z,6.53
2023-05-07T20:57:43.607Z,6.67
2023-05-07T21:00:12.591Z,7.40
2023-05-07T21:02:40.821Z,6.90
2023-05-07T21:05:09.467Z,6.93
2023-05-07T21:07:37.473Z,5.83
2023-05-07T21:10:06.183Z,6.33
2023-05-07T21:12:34.152Z,6.07
2023-05-07T21:15:03.512Z,6.63
2023-05-07T21:17:33.013Z,6.00
2023-05-07T21:20:02.304Z,5.33
2023-05-07T21:22:30.447Z,6.10
2023-05-07T21:24:58.400Z,5.90
2023-05-07T21:27:38.072Z,5.23
2023-05-07T21:30:09.048Z,6.97
2023-05-07T21:32:37.059Z,6.13
2023-05-07T21:35:05.626Z,6.57
2023-05-07T21:37:33.607Z,6.90
2023-05-07T21:40:01.601Z,7.07
2023-05-07T21:42:29.595Z,7.10
2023-05-07T21:44:57.743Z,6.50
2023-05-07T21:47:27.074Z,6.60
2023-05-07T21:49:55.022Z,7.30
2023-05-07T21:52:26.578Z,6.07
2023-05-07T21:54:54.806Z,6.50
2023-05-07T21:57:22.788Z,6.50
2023-05-07T21:59:50.779Z,5.93
2023-05-07T22:02:18.832Z,5.60
2023-05-07T22:04:48.216Z,6.13
2023-05-07T22:07:16.137Z,5.77
2023-05-07T22:09:44.261Z,6.13
2023-05-07T22:12:12.379Z,6.73
2023-05-07T22:14:40.283Z,6.50
2023-05-07T22:17:08.208Z,6.10
2023-05-07T22:19:36.170Z,6.30
2023-05-07T22:22:05.526Z,6.73
2023-05-07T22:24:33.439Z,7.13
2023-05-07T22:27:01.377Z,7.23
2023-05-07T22:29:29.405Z,7.43
2023-05-07T22:31:57.416Z,6.97
2023-05-07T22:34:25.425Z,7.10
2023-05-07T22:36:53.398Z,8.13
2023-05-07T22:39:22.707Z,7.73
2023-05-07T22:41:50.705Z,7.10
2023-05-07T22:44:18.647Z,8.47
2023-05-07T22:46:46.654Z,6.63
2023-05-07T22:49:14.646Z,7.03
2023-05-07T22:51:42.625Z,7.07
2023-05-07T22:54:11.265Z,6.20
2023-05-07T22:56:41.145Z,7.37
2023-05-07T22:59:09.129Z,7.77
2023-05-07T23:01:37.196Z,6.93
2023-05-07T23:04:05.246Z,7.47
2023-05-07T23:06:33.212Z,8.10
2023-05-07T23:09:01.379Z,6.27
2023-05-07T23:11:29.493Z,6.67
2023-05-07T23:13:58.873Z,7.03
2023-05-07T23:16:28.637Z,7.00
2023-05-07T23:18:56.728Z,7.03
2023-05-07T23:21:25.020Z,7.20
2023-05-07T23:23:53.012Z,6.90
2023-05-07T23:26:21.083Z,7.37
2023-05-07T23:28:49.079Z,7.30
2023-05-07T23:31:18.423Z,7.40
2023-05-07T23:33:46.444Z,7.07
2023-05-07T23:36:14.472Z,7.60
2023-05-07T23:38:42.480Z,7.10
2023-05-07T23:41:10.463Z,7.60
2023-05-07T23:43:38.573Z,7.93
2023-05-07T23:46:06.735Z,7.60
2023-05-07T23:48:36.014Z,7.60
2023-05-07T23:51:03.968Z,7.47
2023-05-07T23:53:34.147Z,7.93
2023-05-07T23:56:02.118Z,7.80
2023-05-07T23:58:32.685Z,9.07
